Terminal Aerodrome Forecast
Issued by NWS

Home | Current Version | Previous Version | Graphics & Text | Print | Product List | Glossary On
Versions: 1 2 3 4 5 6 7 8 9 10 11 12 13 14 15 16 17 18 19 20 21 22 23
000
FTUS43 KBIS 270900 AAB
TAFDIK
TAF AMD
KDIK 270946Z 2710/2806 25007KT P6SM OVC025
      TEMPO 2710/2712 24007KT SCT015
     FM271200 26008KT P6SM FEW025 FEW300
     FM271400 25009KT P6SM SCT300
     FM271700 25011KT P6SM SCT120 BKN200
     FM272200 26007KT P6SM SCT060 BKN090 OVC120=

USA.gov is the U.S. government's official web portal to all federal, state and local government web resources and services.